Kap.kostas — SY3522 — position and weather

sailwx.info

Track history (hours):
 
Tides and Currents Weather Stations Pressure Air Temp Water Temp Dewpoint Dewpoint Depression Visibility Wind Speed Wind Dir Waves Ship Positions

Kap.kostas

Last reported at 2017-Oct-10 15:02 UTC. Time now 2017-Oct-17 13:54 UTC.
Position N 40°48' E 024°20'.

Length 31 m; draft 3.5 m.

Type: Fishing. MMSI: 240020000.

Date/timePositionNaut miles runAvg speedWind from/ knotsBaromVisibWave heightAir tempDewpointWater temp
2017-Oct-10 15:02N 40°48' E 024°20'0 8.4
2017-Oct-10 15:00N 40°48' E 024°20'0 0.0
2017-Oct-09 14:46N 40°49' E 024°20'1 5.6
2017-Oct-09 14:30N 40°50' E 024°20'  
2017-Oct-05 13:48N 40°47' E 024°17'3 8.6
2017-Oct-05 13:29N 40°49' E 024°20'2 3.8
2017-Oct-05 13:00N 40°51' E 024°19'0 0.0
2017-Oct-05 12:29N 40°51' E 024°19'0 0.0
2017-Oct-05 11:59N 40°51' E 024°19'0 0.0
2017-Oct-05 11:30N 40°51' E 024°19'0 0.0
2017-Oct-05 11:00N 40°51' E 024°19'0 0.0
2017-Oct-05 10:26N 40°51' E 024°19'0 0.0
2017-Oct-05 09:57N 40°51' E 024°19'0 0.0
2017-Oct-05 09:27N 40°51' E 024°19'0 0.0
2017-Oct-05 08:57N 40°51' E 024°19'0 0.0
2017-Oct-05 08:27N 40°51' E 024°19'0 0.0
2017-Oct-05 08:00N 40°51' E 024°19'0 0.0
2017-Oct-05 07:30N 40°51' E 024°19'0 0.0
2017-Oct-05 06:57N 40°51' E 024°19'0 0.0
2017-Oct-05 06:15N 40°51' E 024°19'0 0.0
2017-Oct-05 05:57N 40°51' E 024°19'0 0.0
2017-Oct-05 05:18N 40°51' E 024°19'0 0.0
2017-Oct-05 04:57N 40°51' E 024°19'0 0.5
2017-Oct-05 04:30N 40°51' E 024°19'3 6.6
2017-Oct-05 04:00N 40°47' E 024°18'  
2017-Oct-02 14:53N 40°49' E 024°21'2 1.2
2017-Oct-02 13:18N 40°51' E 024°19'0 0.0
2017-Oct-02 12:53N 40°51' E 024°19'0 0.0
2017-Oct-02 12:22N 40°51' E 024°19'0 0.0
2017-Oct-02 11:22N 40°51' E 024°19'0 0.0
2017-Oct-02 10:57N 40°51' E 024°19'0 0.0
2017-Oct-02 09:40N 40°51' E 024°19'0 0.0
2017-Oct-02 09:23N 40°51' E 024°19'0 0.0
2017-Oct-02 08:50N 40°51' E 024°19'0 0.0
2017-Oct-02 05:15N 40°51' E 024°19'0 0.0
2017-Oct-02 04:53N 40°51' E 024°19'0 0.0
2017-Oct-02 04:21N 40°51' E 024°19'0 0.0
2017-Oct-02 04:00N 40°51' E 024°19'0 0.0
2017-Oct-02 03:26N 40°51' E 024°19'0 0.0
2017-Oct-02 00:46N 40°51' E 024°19'0 0.0
2017-Oct-02 00:28N 40°51' E 024°19'0 0.0
2017-Oct-01 23:57N 40°51' E 024°19'0 0.0
2017-Oct-01 23:21N 40°51' E 024°19'0 0.0
2017-Oct-01 22:35N 40°51' E 024°19'0 0.0
2017-Oct-01 22:29N 40°51' E 024°19'0 0.0
2017-Oct-01 22:00N 40°51' E 024°19'0 0.0
2017-Oct-01 17:45N 40°51' E 024°19'0 0.0
2017-Oct-01 17:27N 40°51' E 024°19'0 0.0
2017-Oct-01 16:54N 40°51' E 024°19'0 0.0
2017-Oct-01 16:25N 40°51' E 024°19'0 0.0
2017-Oct-01 15:53N 40°51' E 024°19'0 0.0
2017-Oct-01 11:00N 40°51' E 024°19'0 0.0
2017-Oct-01 10:27N 40°51' E 024°19'0 0.0
2017-Oct-01 09:51N 40°51' E 024°19'0 0.0
2017-Oct-01 09:30N 40°51' E 024°19'0 0.0
2017-Oct-01 08:58N 40°51' E 024°19'0 0.0
2017-Oct-01 08:27N 40°51' E 024°19'0 0.0
2017-Oct-01 08:00N 40°51' E 024°19'0 0.0
2017-Oct-01 07:30N 40°51' E 024°19'0 0.0
2017-Oct-01 07:00N 40°51' E 024°19'0 0.0
2017-Oct-01 06:30N 40°51' E 024°19'0 0.0
2017-Oct-01 06:00N 40°51' E 024°19'0 0.0
2017-Oct-01 05:30N 40°51' E 024°19'0 0.0
2017-Oct-01 05:00N 40°51' E 024°19'0 0.0
2017-Oct-01 04:30N 40°51' E 024°19'0 0.0
2017-Oct-01 04:00N 40°51' E 024°19'0 0.0
2017-Oct-01 03:30N 40°51' E 024°19'0 0.0
2017-Oct-01 03:00N 40°51' E 024°19'  
Track history (hours):
 
Tides and Currents Weather Stations Pressure Air Temp Water Temp Dewpoint Dewpoint Depression Visibility Wind Speed Wind Dir Waves Ship Positions

Kap.kostas

Last reported at 2017-Oct-10 15:02 UTC. Time now 2017-Oct-17 13:54 UTC.
Position N 40°48' E 024°20'.

Length 31 m; draft 3.5 m.

Type: Fishing. MMSI: 240020000.

Date/timePositionNaut miles runAvg speedWind from/ knotsBaromVisibWave heightAir tempDewpointWater temp
2017-Oct-10 15:02N 40°48' E 024°20'0 8.4
2017-Oct-10 15:00N 40°48' E 024°20'0 0.0
2017-Oct-09 14:46N 40°49' E 024°20'1 5.6
2017-Oct-09 14:30N 40°50' E 024°20'  
2017-Oct-05 13:48N 40°47' E 024°17'3 8.6
2017-Oct-05 13:29N 40°49' E 024°20'2 3.8
2017-Oct-05 13:00N 40°51' E 024°19'0 0.0
2017-Oct-05 12:29N 40°51' E 024°19'0 0.0
2017-Oct-05 11:59N 40°51' E 024°19'0 0.0
2017-Oct-05 11:30N 40°51' E 024°19'0 0.0
2017-Oct-05 11:00N 40°51' E 024°19'0 0.0
2017-Oct-05 10:26N 40°51' E 024°19'0 0.0
2017-Oct-05 09:57N 40°51' E 024°19'0 0.0
2017-Oct-05 09:27N 40°51' E 024°19'0 0.0
2017-Oct-05 08:57N 40°51' E 024°19'0 0.0
2017-Oct-05 08:27N 40°51' E 024°19'0 0.0
2017-Oct-05 08:00N 40°51' E 024°19'0 0.0
2017-Oct-05 07:30N 40°51' E 024°19'0 0.0
2017-Oct-05 06:57N 40°51' E 024°19'0 0.0
2017-Oct-05 06:15N 40°51' E 024°19'0 0.0
2017-Oct-05 05:57N 40°51' E 024°19'0 0.0
2017-Oct-05 05:18N 40°51' E 024°19'0 0.0
2017-Oct-05 04:57N 40°51' E 024°19'0 0.5
2017-Oct-05 04:30N 40°51' E 024°19'3 6.6
2017-Oct-05 04:00N 40°47' E 024°18'  
2017-Oct-02 14:53N 40°49' E 024°21'2 1.2
2017-Oct-02 13:18N 40°51' E 024°19'0 0.0
2017-Oct-02 12:53N 40°51' E 024°19'0 0.0
2017-Oct-02 12:22N 40°51' E 024°19'0 0.0
2017-Oct-02 11:22N 40°51' E 024°19'0 0.0
2017-Oct-02 10:57N 40°51' E 024°19'0 0.0
2017-Oct-02 09:40N 40°51' E 024°19'0 0.0
2017-Oct-02 09:23N 40°51' E 024°19'0 0.0
2017-Oct-02 08:50N 40°51' E 024°19'0 0.0
2017-Oct-02 05:15N 40°51' E 024°19'0 0.0
2017-Oct-02 04:53N 40°51' E 024°19'0 0.0
2017-Oct-02 04:21N 40°51' E 024°19'0 0.0
2017-Oct-02 04:00N 40°51' E 024°19'0 0.0
2017-Oct-02 03:26N 40°51' E 024°19'0 0.0
2017-Oct-02 00:46N 40°51' E 024°19'0 0.0
2017-Oct-02 00:28N 40°51' E 024°19'0 0.0
2017-Oct-01 23:57N 40°51' E 024°19'0 0.0
2017-Oct-01 23:21N 40°51' E 024°19'0 0.0
2017-Oct-01 22:35N 40°51' E 024°19'0 0.0
2017-Oct-01 22:29N 40°51' E 024°19'0 0.0
2017-Oct-01 22:00N 40°51' E 024°19'0 0.0
2017-Oct-01 17:45N 40°51' E 024°19'0 0.0
2017-Oct-01 17:27N 40°51' E 024°19'0 0.0
2017-Oct-01 16:54N 40°51' E 024°19'0 0.0
2017-Oct-01 16:25N 40°51' E 024°19'0 0.0
2017-Oct-01 15:53N 40°51' E 024°19'0 0.0
2017-Oct-01 11:00N 40°51' E 024°19'0 0.0
2017-Oct-01 10:27N 40°51' E 024°19'0 0.0
2017-Oct-01 09:51N 40°51' E 024°19'0 0.0
2017-Oct-01 09:30N 40°51' E 024°19'0 0.0
2017-Oct-01 08:58N 40°51' E 024°19'0 0.0
2017-Oct-01 08:27N 40°51' E 024°19'0 0.0
2017-Oct-01 08:00N 40°51' E 024°19'0 0.0
2017-Oct-01 07:30N 40°51' E 024°19'0 0.0
2017-Oct-01 07:00N 40°51' E 024°19'0 0.0
2017-Oct-01 06:30N 40°51' E 024°19'0 0.0
2017-Oct-01 06:00N 40°51' E 024°19'0 0.0
2017-Oct-01 05:30N 40°51' E 024°19'0 0.0
2017-Oct-01 05:00N 40°51' E 024°19'0 0.0
2017-Oct-01 04:30N 40°51' E 024°19'0 0.0
2017-Oct-01 04:00N 40°51' E 024°19'0 0.0
2017-Oct-01 03:30N 40°51' E 024°19'0 0.0
2017-Oct-01 03:00N 40°51' E 024°19'  

Dump ship's entire track history